qatarshub.com alexa rank chart, qatarshub.com alexa rank daily changes

qatarshub.com alexa rank chart, qatarshub.com alexa rank daily changes

qatarshub.com
Actual rank:
524 884

RANK HISTORY

Date Rank Diff
2017/09/20 524 884 -20 064
2017/09/19 544 948 -46 227
2017/09/18 591 175 +10 808
2017/09/17 580 367 -56
2017/09/16 580 423 +21 101
2017/09/15 559 322 -10 433
2017/09/14 569 755 +20 045
2017/09/13 549 710 -16 065
2017/09/12 565 775 -19 408
2017/09/11 585 183 -16 429
2017/09/10 601 612 +1 115
2017/09/09 600 497 +33 829
2017/09/08 566 668 +43 428
2017/09/07 523 240 +12 178
2017/09/06 511 062 -15 887
2017/09/05 526 949 +20 620
2017/09/04 506 329 +6 921
2017/09/03 499 408 -6 297
2017/09/02 505 705 +19 068
2017/09/01 486 637 +8 980
2017/08/31 477 657 +19 012
2017/08/30 458 645 -16 971
2017/08/29 475 616 -2 100
2017/08/28 477 716 +26 491
2017/08/27 451 225 -1 327
2017/08/26 452 552 +17 584
2017/08/25 434 968 -8 173
2017/08/24 443 141 -5 105
2017/08/23 448 246 -22 561
2017/08/22 470 807 -7 842
2017/08/21 478 649 +13 645
2017/08/20 465 004 +12 876
2017/08/19 452 128 -1 107
2017/08/18 453 235 -5 333
2017/08/17 458 568 +1 781
2017/08/16 456 787 -21 559
2017/08/15 478 346 +407
2017/08/14 477 939 -4 593
2017/08/13 482 532 +2 423
2017/08/12 480 109 -1 341
2017/08/11 481 450 -6 905
2017/08/10 488 355 +13 379
2017/08/09 474 976 -22 025
2017/08/08 497 001 -34 358
2017/08/07 531 359 -505
2017/08/06 531 864 +21 869
2017/08/05 509 995 +10 972
2017/08/04 499 023 +42 216
2017/08/03 456 807 +32 948
2017/08/02 423 859 -14 096
2017/08/01 437 955 -4 912
2017/07/31 442 867 -8 117
2017/07/30 450 984 +47 695
2017/07/29 403 289 +4 951
2017/07/28 398 338 -21 889
2017/07/27 420 227 -12 691
2017/07/26 432 918 -8 254
2017/07/25 441 172 -8 633
2017/07/24 449 805 +14 798
2017/07/23 435 007 +25 830
2017/07/22 409 177

WIDGET FOR YOUR SITE

DOMAINS WITH THE NEAREST RANK

Domain Rank
totaldamage.hu 524 879
svenskabostader.se 524 880
kineticsnoise.com 524 881
pinuocaozhutigongyuan.com 524 882
corinaldo.it 524 883
qatarshub.com 524 884
thx1138.eu 524 885
t-tapp.com 524 886
biyou-goods.com 524 887
vogue-eyewear.com 524 888
sushiba.com 524 889

DOMAINS WITH THE NEAREST RANK BY TLD .com

Domain Rank
poyrazhosting.com 524 875
zaglebie.com 524 876
gym-talk.com 524 878
kineticsnoise.com 524 881
pinuocaozhutigongyuan.com 524 882
qatarshub.com 524 884
t-tapp.com 524 886
biyou-goods.com 524 887
vogue-eyewear.com 524 888
sushiba.com 524 889
kinkbnb.com 524 890